createdAt,value
2023-04-09T02:29:22.230Z,94.91
2023-04-09T02:30:54.247Z,95.30
2023-04-09T02:32:27.049Z,95.23
2023-04-09T02:33:59.146Z,95.15
2023-04-09T02:35:31.264Z,95.38
2023-04-09T02:37:03.372Z,95.49
2023-04-09T02:38:35.461Z,95.31
2023-04-09T02:40:08.159Z,95.33
2023-04-09T02:41:40.440Z,95.35
2023-04-09T02:43:12.660Z,95.45
2023-04-09T02:44:44.851Z,95.37
2023-04-09T02:46:17.091Z,95.22
2023-04-09T02:47:49.389Z,95.51
2023-04-09T02:49:21.543Z,95.39
2023-04-09T02:50:53.780Z,95.32
2023-04-09T02:52:26.414Z,95.16
2023-04-09T02:53:58.505Z,95.19
2023-04-09T02:55:30.722Z,94.96
2023-04-09T02:57:02.698Z,94.95
2023-04-09T02:58:34.836Z,95.19
2023-04-09T03:00:07.744Z,95.17
2023-04-09T03:01:39.899Z,95.21
2023-04-09T03:03:12.298Z,95.23
2023-04-09T03:04:44.636Z,95.12
2023-04-09T03:06:16.824Z,95.34
2023-04-09T03:07:51.982Z,95.37
2023-04-09T03:09:24.178Z,95.34
2023-04-09T03:10:56.332Z,95.37
2023-04-09T03:12:28.452Z,95.29
2023-04-09T03:14:00.806Z,95.41
2023-04-09T03:15:32.897Z,95.18
2023-04-09T03:17:05.016Z,95.42
2023-04-09T03:18:37.573Z,95.25
2023-04-09T03:20:09.977Z,95.24
2023-04-09T03:21:42.118Z,95.30
2023-04-09T03:23:14.257Z,95.20
2023-04-09T03:24:46.650Z,95.33
2023-04-09T03:26:18.732Z,95.69
2023-04-09T03:27:50.868Z,95.60
2023-04-09T03:29:22.960Z,95.55
2023-04-09T03:30:55.201Z,95.45
2023-04-09T03:32:27.649Z,95.47
2023-04-09T03:33:59.847Z,95.56
2023-04-09T03:35:32.039Z,95.54
2023-04-09T03:37:04.168Z,95.55
2023-04-09T03:38:36.509Z,95.45
2023-04-09T03:40:09.150Z,95.60
2023-04-09T03:41:41.243Z,95.62
2023-04-09T03:43:13.453Z,95.61
2023-04-09T03:44:45.570Z,95.43
2023-04-09T03:46:18.479Z,95.41
2023-04-09T03:47:50.801Z,95.24
2023-04-09T03:49:23.054Z,95.10
2023-04-09T03:50:55.116Z,95.22
2023-04-09T03:52:27.373Z,95.13
2023-04-09T03:53:59.700Z,95.00
2023-04-09T03:55:31.814Z,95.25
2023-04-09T03:57:04.962Z,95.23
2023-04-09T03:58:37.726Z,95.07
2023-04-09T04:00:10.152Z,95.02
2023-04-09T04:01:42.380Z,95.18
2023-04-09T04:03:16.701Z,95.37
2023-04-09T04:04:48.946Z,95.53
2023-04-09T04:06:21.406Z,95.48
2023-04-09T04:07:53.793Z,95.61
2023-04-09T04:09:26.066Z,95.58
2023-04-09T04:11:04.408Z,95.27
2023-04-09T04:12:36.481Z,95.28
2023-04-09T04:14:08.516Z,95.53
2023-04-09T04:15:44.392Z,95.49
2023-04-09T04:17:16.675Z,95.41
2023-04-09T04:18:48.790Z,95.65
2023-04-09T04:20:21.238Z,95.45
2023-04-09T04:21:53.374Z,95.64
2023-04-09T04:23:25.622Z,95.53
2023-04-09T04:24:57.758Z,95.70
2023-04-09T04:26:29.926Z,95.48
2023-04-09T04:28:02.080Z,95.59
2023-04-09T04:29:34.141Z,95.60
2023-04-09T04:31:11.098Z,95.53
2023-04-09T04:32:43.337Z,95.80
2023-04-09T04:34:15.700Z,95.78
2023-04-09T04:35:48.121Z,95.58
2023-04-09T04:37:20.498Z,95.93
2023-04-09T04:38:52.953Z,95.76
2023-04-09T04:40:25.404Z,95.72
2023-04-09T04:41:57.692Z,95.94
2023-04-09T04:43:29.925Z,95.58
2023-04-09T04:45:02.431Z,95.67
2023-04-09T04:46:34.556Z,95.50
2023-04-09T04:48:06.743Z,95.63
2023-04-09T04:49:38.826Z,95.67
2023-04-09T04:51:11.017Z,95.79
2023-04-09T04:52:43.140Z,95.62
2023-04-09T04:54:15.207Z,95.69
2023-04-09T04:55:47.294Z,95.60
2023-04-09T04:57:19.545Z,95.62
2023-04-09T04:58:54.136Z,95.56
2023-04-09T05:00:26.482Z,95.62
2023-04-09T05:01:58.618Z,95.58
2023-04-09T05:03:30.953Z,95.54
2023-04-09T05:05:03.332Z,95.52
2023-04-09T05:06:35.457Z,95.57
2023-04-09T05:08:07.666Z,95.89
2023-04-09T05:09:39.722Z,95.70
2023-04-09T05:11:13.291Z,95.88
2023-04-09T05:12:45.519Z,95.68
2023-04-09T05:14:17.737Z,95.75
2023-04-09T05:15:49.805Z,95.58
2023-04-09T05:17:21.917Z,95.71
2023-04-09T05:18:54.484Z,95.91
2023-04-09T05:20:28.185Z,95.63
2023-04-09T05:22:00.336Z,95.70
2023-04-09T05:23:32.443Z,95.89
2023-04-09T05:25:05.024Z,95.63
2023-04-09T05:26:37.155Z,95.71
2023-04-09T05:28:11.641Z,95.67
2023-04-09T05:29:43.893Z,95.51
2023-04-09T05:31:16.626Z,95.69
2023-04-09T05:32:48.876Z,95.91
2023-04-09T05:34:21.358Z,95.76
2023-04-09T05:35:53.615Z,95.71
2023-04-09T05:37:26.178Z,96.10
2023-04-09T05:38:58.342Z,95.96
2023-04-09T05:40:30.774Z,96.19
2023-04-09T05:42:02.961Z,95.88
2023-04-09T05:43:35.039Z,95.80
2023-04-09T05:45:07.861Z,95.32
2023-04-09T05:46:39.997Z,95.32
2023-04-09T05:48:12.211Z,95.05
2023-04-09T05:49:44.330Z,94.74
2023-04-09T05:51:16.859Z,94.45
2023-04-09T05:52:48.911Z,94.54
2023-04-09T05:54:21.058Z,94.75
2023-04-09T05:55:53.294Z,94.35
2023-04-09T05:57:25.447Z,94.26
2023-04-09T05:58:57.621Z,94.02
2023-04-09T06:00:29.879Z,94.41
2023-04-09T06:02:02.632Z,94.25
2023-04-09T06:03:34.922Z,94.09
2023-04-09T06:05:07.493Z,94.04
2023-04-09T06:06:39.737Z,93.82
2023-04-09T06:08:13.190Z,94.07
2023-04-09T06:09:45.493Z,93.85
2023-04-09T06:11:18.338Z,93.68
2023-04-09T06:12:50.722Z,93.43
2023-04-09T06:14:22.841Z,93.27
2023-04-09T06:15:55.368Z,93.25
2023-04-09T06:17:27.591Z,92.89
2023-04-09T06:18:59.703Z,92.59
2023-04-09T06:20:31.843Z,92.70
2023-04-09T06:22:03.989Z,92.19
2023-04-09T06:23:37.236Z,92.15
2023-04-09T06:25:09.434Z,92.11
2023-04-09T06:26:41.987Z,92.00
2023-04-09T06:29:48.012Z,91.43
2023-04-09T06:31:20.173Z,91.44
2023-04-09T06:32:54.930Z,91.28
2023-04-09T06:34:27.547Z,91.09
2023-04-09T06:35:59.687Z,91.13
2023-04-09T06:37:31.814Z,90.51
2023-04-09T06:39:04.385Z,90.16
2023-04-09T06:40:40.112Z,90.14
2023-04-09T06:42:12.187Z,90.32
2023-04-09T06:43:44.237Z,89.98
2023-04-09T06:45:16.613Z,89.97
2023-04-09T06:46:48.780Z,89.71
2023-04-09T06:48:21.192Z,89.51
2023-04-09T06:49:53.294Z,89.51
2023-04-09T06:51:25.478Z,89.43
2023-04-09T06:52:58.053Z,89.14
2023-04-09T06:54:30.157Z,89.28
2023-04-09T06:56:02.310Z,88.98
2023-04-09T06:59:13.761Z,89.09
2023-04-09T07:00:45.850Z,89.38
2023-04-09T07:02:18.081Z,89.12
2023-04-09T07:03:50.593Z,88.86
2023-04-09T07:05:23.090Z,88.83
2023-04-09T07:06:55.644Z,88.93
2023-04-09T07:08:29.120Z,89.07
2023-04-09T07:10:01.906Z,88.89
2023-04-09T07:11:34.023Z,88.61
2023-04-09T07:13:06.383Z,88.81
2023-04-09T07:14:38.418Z,88.81
2023-04-09T07:16:13.687Z,88.12
2023-04-09T07:17:45.930Z,87.77
2023-04-09T07:19:18.304Z,87.19
2023-04-09T07:20:50.458Z,87.66
2023-04-09T07:22:23.408Z,87.62
2023-04-09T07:23:56.797Z,87.52
2023-04-09T07:25:28.978Z,87.54
2023-04-09T07:27:04.495Z,88.97
2023-04-09T07:28:37.045Z,88.79
2023-04-09T07:30:10.966Z,88.85
2023-04-09T07:31:45.300Z,88.43
2023-04-09T07:33:17.465Z,89.17
2023-04-09T07:34:52.022Z,89.24
2023-04-09T07:36:24.278Z,89.33
2023-04-09T07:37:56.495Z,88.98
2023-04-09T07:39:28.861Z,88.61
2023-04-09T07:41:01.723Z,87.58
2023-04-09T07:42:33.928Z,87.51
2023-04-09T07:44:06.776Z,86.70
2023-04-09T07:45:39.081Z,86.90
2023-04-09T07:47:13.243Z,87.08
2023-04-09T07:48:47.169Z,86.74
2023-04-09T07:50:20.463Z,87.23
2023-04-09T07:51:52.611Z,88.83
2023-04-09T07:53:24.968Z,88.60
2023-04-09T07:54:57.822Z,88.91
2023-04-09T07:56:30.017Z,88.27
2023-04-09T07:58:02.109Z,88.38
2023-04-09T07:59:35.581Z,88.20
2023-04-09T08:01:07.523Z,86.78
2023-04-09T08:02:39.795Z,87.15
2023-04-09T08:04:13.716Z,86.48
2023-04-09T08:05:46.037Z,86.42
2023-04-09T08:07:18.335Z,85.63
2023-04-09T08:08:50.690Z,85.36
2023-04-09T08:10:23.108Z,84.88
2023-04-09T08:11:55.311Z,84.44
2023-04-09T08:13:27.437Z,87.45
2023-04-09T08:14:59.516Z,89.05
2023-04-09T08:16:31.694Z,89.79
2023-04-09T08:18:04.677Z,89.54
2023-04-09T08:19:37.112Z,90.21
2023-04-09T08:21:09.982Z,88.25
2023-04-09T08:22:42.539Z,87.88
2023-04-09T08:24:14.823Z,89.15
2023-04-09T08:25:47.066Z,89.80
2023-04-09T08:27:19.671Z,89.58
2023-04-09T08:28:52.686Z,88.52
2023-04-09T08:30:25.081Z,88.68
2023-04-09T08:31:57.723Z,90.13
2023-04-09T08:33:30.679Z,89.77
2023-04-09T08:35:02.806Z,89.69
2023-04-09T08:36:36.141Z,90.19
2023-04-09T08:38:08.276Z,89.80
2023-04-09T08:39:40.375Z,89.48
2023-04-09T08:41:18.896Z,89.19
2023-04-09T08:42:58.647Z,87.92
2023-04-09T08:44:33.337Z,88.24
2023-04-09T08:46:06.534Z,89.53
2023-04-09T08:47:38.963Z,87.60
2023-04-09T08:49:14.710Z,89.00
2023-04-09T08:50:47.193Z,89.82
2023-04-09T08:52:22.381Z,88.99
2023-04-09T08:54:01.391Z,89.28
2023-04-09T08:55:35.489Z,89.52
2023-04-09T08:57:08.119Z,89.13
2023-04-09T08:58:45.700Z,88.24
2023-04-09T09:00:17.923Z,84.87
2023-04-09T09:01:54.832Z,84.79
2023-04-09T09:03:27.401Z,85.76
2023-04-09T09:05:02.482Z,86.92
2023-04-09T09:06:39.211Z,85.93
2023-04-09T09:08:13.179Z,85.24
2023-04-09T09:09:59.265Z,86.28
2023-04-09T09:11:31.683Z,86.63
2023-04-09T09:13:17.123Z,83.49
2023-04-09T09:14:51.573Z,85.76
2023-04-09T09:16:23.749Z,85.75
2023-04-09T09:18:01.232Z,85.56
2023-04-09T09:19:34.069Z,84.80
2023-04-09T09:21:18.134Z,83.90
2023-04-09T09:22:55.177Z,84.29
2023-04-09T09:24:28.217Z,84.98
2023-04-09T09:26:00.538Z,84.79
2023-04-09T09:27:40.846Z,82.76
2023-04-09T09:29:12.958Z,80.46
2023-04-09T09:32:22.367Z,79.97
2023-04-09T09:33:54.730Z,83.66
2023-04-09T09:35:27.096Z,84.84
2023-04-09T09:36:59.380Z,82.82
2023-04-09T09:38:31.890Z,80.81
2023-04-09T09:40:04.998Z,78.34
2023-04-09T09:41:37.541Z,78.04
2023-04-09T09:43:09.752Z,78.50
2023-04-09T09:44:41.944Z,76.78
2023-04-09T09:46:14.226Z,78.36
2023-04-09T09:47:46.984Z,78.45
2023-04-09T09:49:19.165Z,79.15
2023-04-09T09:50:52.582Z,78.06
2023-04-09T09:52:27.913Z,78.62
2023-04-09T09:54:00.173Z,75.99
2023-04-09T09:55:39.560Z,79.26
2023-04-09T09:57:14.922Z,80.20
2023-04-09T09:58:56.090Z,78.53
2023-04-09T10:00:29.782Z,79.71
2023-04-09T10:02:05.657Z,77.52
2023-04-09T10:03:40.071Z,78.41
2023-04-09T10:05:12.220Z,79.13
2023-04-09T10:06:45.442Z,79.67
2023-04-09T10:08:18.354Z,78.07
2023-04-09T10:09:51.988Z,76.34
2023-04-09T10:11:24.872Z,77.64
2023-04-09T10:12:57.199Z,76.67
2023-04-09T10:14:29.858Z,73.32
2023-04-09T10:16:02.801Z,73.78
2023-04-09T10:17:35.069Z,76.32
2023-04-09T10:19:10.322Z,71.07
2023-04-09T10:20:49.374Z,75.17
2023-04-09T10:22:24.113Z,70.92
2023-04-09T10:23:56.319Z,71.63
2023-04-09T10:25:29.012Z,72.39
2023-04-09T10:27:12.119Z,71.33
2023-04-09T10:28:45.906Z,73.51
2023-04-09T10:30:34.694Z,72.56
2023-04-09T10:32:07.778Z,73.76
2023-04-09T10:33:40.152Z,72.69
2023-04-09T10:35:12.237Z,72.86
2023-04-09T10:36:45.731Z,72.69
2023-04-09T10:38:17.869Z,72.42
2023-04-09T10:39:51.985Z,71.53
2023-04-09T10:41:29.076Z,70.04
2023-04-09T10:43:02.336Z,68.05
2023-04-09T10:44:36.469Z,69.67
2023-04-09T10:46:30.196Z,70.96
2023-04-09T10:48:03.714Z,69.14
2023-04-09T10:49:38.815Z,70.13
2023-04-09T10:51:19.658Z,72.10
2023-04-09T10:53:00.656Z,71.89
2023-04-09T10:54:35.625Z,70.22
2023-04-09T10:56:15.880Z,68.42
2023-04-09T10:57:47.972Z,70.04
2023-04-09T10:59:20.110Z,70.45
2023-04-09T11:00:54.337Z,74.06
2023-04-09T11:02:32.384Z,73.27
2023-04-09T11:04:17.565Z,75.04
2023-04-09T11:06:01.436Z,74.92
2023-04-09T11:07:36.134Z,74.93
2023-04-09T11:09:08.333Z,73.91
2023-04-09T11:10:42.490Z,71.01
2023-04-09T11:12:14.714Z,70.76
2023-04-09T11:13:46.801Z,70.99
2023-04-09T11:15:20.282Z,71.35
2023-04-09T11:16:52.498Z,70.47
2023-04-09T11:18:26.573Z,71.99
2023-04-09T11:19:58.952Z,70.05
2023-04-09T11:21:31.849Z,73.33
2023-04-09T11:23:04.093Z,72.47
2023-04-09T11:24:43.140Z,69.97
2023-04-09T11:26:15.293Z,68.66
2023-04-09T11:27:48.036Z,70.88
2023-04-09T11:29:20.165Z,71.17
2023-04-09T11:30:52.868Z,69.63
2023-04-09T11:32:31.174Z,70.37
2023-04-09T11:34:03.755Z,70.82
2023-04-09T11:35:37.183Z,69.01
2023-04-09T11:37:14.795Z,68.33
2023-04-09T11:38:50.671Z,66.13
2023-04-09T11:40:27.119Z,65.67
2023-04-09T11:41:59.366Z,65.45
2023-04-09T11:43:31.527Z,67.01
2023-04-09T11:45:04.204Z,66.47
2023-04-09T11:46:36.688Z,65.10
2023-04-09T11:48:09.046Z,64.68
2023-04-09T11:49:42.281Z,64.24
2023-04-09T11:51:14.363Z,65.23
2023-04-09T11:52:47.356Z,65.09
2023-04-09T11:54:19.539Z,65.70
2023-04-09T11:55:53.019Z,64.22
2023-04-09T11:57:25.151Z,63.18
2023-04-09T11:58:57.537Z,64.92
2023-04-09T12:00:30.084Z,64.80
2023-04-09T12:02:03.929Z,65.69
2023-04-09T12:03:37.962Z,63.96
2023-04-09T12:05:12.461Z,64.14
2023-04-09T12:06:45.312Z,65.23
2023-04-09T12:08:18.873Z,63.87
2023-04-09T12:09:51.245Z,63.61
2023-04-09T12:11:29.537Z,63.08
2023-04-09T12:13:03.776Z,63.75
2023-04-09T12:14:36.003Z,64.61
2023-04-09T12:16:08.362Z,63.71
2023-04-09T12:17:40.592Z,63.20
2023-04-09T12:19:15.036Z,63.74
2023-04-09T12:20:50.014Z,60.79
2023-04-09T12:22:22.391Z,61.38
2023-04-09T12:23:54.579Z,62.12
2023-04-09T12:25:28.073Z,59.89
2023-04-09T12:27:00.260Z,64.67
2023-04-09T12:28:32.616Z,63.28
2023-04-09T12:30:05.358Z,62.37
2023-04-09T12:31:37.871Z,60.35
2023-04-09T12:33:11.123Z,59.07
2023-04-09T12:34:43.890Z,60.85
2023-04-09T12:36:16.000Z,61.40
2023-04-09T12:37:48.411Z,60.50
2023-04-09T12:39:21.458Z,60.80
2023-04-09T12:40:53.680Z,57.00
2023-04-09T12:42:25.899Z,59.82
2023-04-09T12:43:58.252Z,59.02
2023-04-09T12:45:31.360Z,58.72
2023-04-09T12:47:03.660Z,58.48
2023-04-09T12:48:35.827Z,59.02
2023-04-09T12:50:09.428Z,59.13
2023-04-09T12:51:42.124Z,59.89
2023-04-09T12:53:14.376Z,57.41
2023-04-09T12:54:47.940Z,58.71
2023-04-09T12:56:20.900Z,59.19
2023-04-09T12:57:53.623Z,58.68
2023-04-09T12:59:25.917Z,58.65
2023-04-09T13:00:58.364Z,59.11
2023-04-09T13:02:30.758Z,59.83
2023-04-09T13:04:03.298Z,59.58
2023-04-09T13:05:38.414Z,59.81
2023-04-09T13:07:10.553Z,59.38
2023-04-09T13:08:42.740Z,57.67
2023-04-09T13:10:14.934Z,57.61
2023-04-09T13:11:47.136Z,60.79
2023-04-09T13:13:19.439Z,59.96
2023-04-09T13:14:53.101Z,57.84
2023-04-09T13:16:25.220Z,62.04
2023-04-09T13:19:42.728Z,59.77
2023-04-09T13:21:19.126Z,61.56
2023-04-09T13:22:52.864Z,64.27
2023-04-09T13:24:25.155Z,62.90
2023-04-09T13:25:57.758Z,61.27
2023-04-09T13:27:29.952Z,62.35
2023-04-09T13:29:02.726Z,62.03
2023-04-09T13:30:34.999Z,61.91
2023-04-09T13:32:11.422Z,64.08
2023-04-09T13:33:43.749Z,66.40
2023-04-09T13:35:16.094Z,68.59
2023-04-09T13:36:48.254Z,71.26
2023-04-09T13:38:20.414Z,73.75
2023-04-09T13:39:52.509Z,75.27
2023-04-09T13:41:29.794Z,77.11
2023-04-09T13:43:02.957Z,73.74
2023-04-09T13:44:35.656Z,75.25
2023-04-09T13:46:07.901Z,75.24
2023-04-09T13:47:40.065Z,75.22
2023-04-09T13:49:12.369Z,75.66
2023-04-09T13:50:47.077Z,76.77
2023-04-09T13:52:19.519Z,78.13
2023-04-09T13:53:52.894Z,79.32
2023-04-09T13:55:25.200Z,80.73
2023-04-09T13:56:57.528Z,80.85
2023-04-09T13:58:29.779Z,80.96
2023-04-09T14:00:04.936Z,81.40
2023-04-09T14:01:37.590Z,81.77
2023-04-09T14:03:10.329Z,82.18
2023-04-09T14:04:42.598Z,82.19
2023-04-09T14:06:14.849Z,82.92
2023-04-09T14:07:47.025Z,83.90
2023-04-09T14:09:19.313Z,83.59
2023-04-09T14:10:51.938Z,84.48
2023-04-09T14:12:24.144Z,85.83
2023-04-09T14:13:56.497Z,86.64
2023-04-09T14:15:28.687Z,86.15
2023-04-09T14:17:00.843Z,85.98
2023-04-09T14:18:33.067Z,86.57
2023-04-09T14:20:05.481Z,86.03
2023-04-09T14:21:37.738Z,85.58
2023-04-09T14:23:10.148Z,85.95
2023-04-09T14:24:42.252Z,85.95
2023-04-09T14:26:14.487Z,86.62
2023-04-09T14:27:47.308Z,86.73
2023-04-09T14:29:20.392Z,85.53
2023-04-09T14:30:52.969Z,84.26
2023-04-09T14:32:25.163Z,85.63
2023-04-09T14:33:57.410Z,86.43
2023-04-09T14:35:29.727Z,86.93
2023-04-09T14:37:02.014Z,87.64
2023-04-09T14:38:35.150Z,87.96
2023-04-09T14:40:10.350Z,88.37
2023-04-09T14:41:42.796Z,88.56
2023-04-09T14:43:14.986Z,87.93
2023-04-09T14:44:47.157Z,86.87
2023-04-09T14:46:20.634Z,87.01
2023-04-09T14:47:55.310Z,86.36
2023-04-09T14:49:27.600Z,85.50
2023-04-09T14:50:59.801Z,85.79
2023-04-09T14:54:03.771Z,85.07
2023-04-09T14:55:38.564Z,84.85
2023-04-09T14:57:10.764Z,84.28
2023-04-09T14:58:42.980Z,84.27
2023-04-09T15:00:15.495Z,84.20
2023-04-09T15:01:47.829Z,83.61
2023-04-09T15:03:20.202Z,83.71
2023-04-09T15:04:52.489Z,83.55
2023-04-09T15:06:24.842Z,83.31
2023-04-09T15:07:57.911Z,83.22
2023-04-09T15:09:30.022Z,83.84
2023-04-09T15:11:02.271Z,84.04
2023-04-09T15:12:34.592Z,84.18
2023-04-09T15:14:06.757Z,84.07
2023-04-09T15:15:41.931Z,83.91
2023-04-09T15:17:14.094Z,83.26
2023-04-09T15:18:47.897Z,82.98
2023-04-09T15:20:20.149Z,82.48
2023-04-09T15:21:52.275Z,82.41
2023-04-09T15:23:24.477Z,82.54
2023-04-09T15:24:56.784Z,83.01
2023-04-09T15:26:29.025Z,82.51
2023-04-09T15:28:02.803Z,82.34
2023-04-09T15:29:35.134Z,82.21
2023-04-09T15:31:07.710Z,82.30
2023-04-09T15:32:39.890Z,82.61
2023-04-09T15:34:12.087Z,83.13
2023-04-09T15:35:44.484Z,83.92
2023-04-09T15:37:16.776Z,84.59
2023-04-09T15:38:48.863Z,85.15
2023-04-09T15:40:21.039Z,85.92
2023-04-09T15:41:53.256Z,85.93
2023-04-09T15:43:25.726Z,84.91
2023-04-09T15:44:57.833Z,83.22
2023-04-09T15:46:29.933Z,82.83
2023-04-09T15:48:02.092Z,82.20
2023-04-09T15:49:37.156Z,82.34
2023-04-09T15:51:09.647Z,82.02
2023-04-09T15:52:42.001Z,82.06
2023-04-09T15:54:14.237Z,81.98
2023-04-09T15:55:46.865Z,82.73
2023-04-09T15:57:19.822Z,82.75
2023-04-09T15:58:52.174Z,82.83
2023-04-09T16:00:24.670Z,83.04
2023-04-09T16:01:56.850Z,83.37
2023-04-09T16:03:28.998Z,83.37
2023-04-09T16:05:01.087Z,83.66
2023-04-09T16:06:33.390Z,83.86
2023-04-09T16:08:05.553Z,84.02
2023-04-09T16:09:37.662Z,83.71
2023-04-09T16:11:10.007Z,83.55
2023-04-09T16:12:42.306Z,83.47
2023-04-09T16:14:14.396Z,83.12
2023-04-09T16:15:47.339Z,82.43
2023-04-09T16:17:19.485Z,82.11
2023-04-09T16:18:51.901Z,82.24
2023-04-09T16:20:24.180Z,82.14
2023-04-09T16:21:56.318Z,82.29
2023-04-09T16:23:30.489Z,82.46
2023-04-09T16:25:03.129Z,82.21
2023-04-09T16:26:35.294Z,82.42
2023-04-09T16:28:07.426Z,82.60
2023-04-09T16:29:39.557Z,82.46
2023-04-09T16:31:11.731Z,82.78
2023-04-09T16:32:43.901Z,82.85
2023-04-09T16:34:16.144Z,83.06
2023-04-09T16:35:48.353Z,83.24
2023-04-09T16:37:20.766Z,83.84
2023-04-09T16:38:53.361Z,84.43
2023-04-09T16:40:25.659Z,84.59
2023-04-09T16:41:58.700Z,85.10
2023-04-09T16:43:31.077Z,85.17
2023-04-09T16:45:04.930Z,85.15
2023-04-09T16:46:37.051Z,85.05
2023-04-09T16:48:12.789Z,85.01
2023-04-09T16:49:45.029Z,85.29
2023-04-09T16:52:50.201Z,86.11
2023-04-09T16:54:22.333Z,86.48
2023-04-09T16:55:54.556Z,86.59
2023-04-09T16:57:26.840Z,86.77
2023-04-09T16:58:59.143Z,86.64
2023-04-09T17:00:31.302Z,86.45
2023-04-09T17:02:03.575Z,86.63
2023-04-09T17:03:36.056Z,86.78
2023-04-09T17:05:09.295Z,86.82
2023-04-09T17:06:41.589Z,87.15
2023-04-09T17:08:13.664Z,87.50
2023-04-09T17:09:45.893Z,87.46
2023-04-09T17:11:18.278Z,87.92
2023-04-09T17:12:51.238Z,87.96
2023-04-09T17:14:23.307Z,88.12
2023-04-09T17:15:55.407Z,88.31
2023-04-09T17:17:27.615Z,88.07
2023-04-09T17:18:59.754Z,88.10
2023-04-09T17:20:32.145Z,87.91
2023-04-09T17:22:05.100Z,87.78
2023-04-09T17:23:38.256Z,87.40
2023-04-09T17:25:11.022Z,87.55
2023-04-09T17:26:43.219Z,87.33
2023-04-09T17:28:16.330Z,87.10
2023-04-09T17:29:50.452Z,86.87
2023-04-09T17:31:24.556Z,87.08
2023-04-09T17:32:56.898Z,87.22
2023-04-09T17:34:29.453Z,87.45
2023-04-09T17:36:02.023Z,87.33
2023-04-09T17:37:35.094Z,87.58
2023-04-09T17:39:07.235Z,87.79
2023-04-09T17:40:39.376Z,88.17
2023-04-09T17:42:14.617Z,88.16
2023-04-09T17:43:46.731Z,87.98
2023-04-09T17:45:18.882Z,87.76
2023-04-09T17:46:51.223Z,87.79
2023-04-09T17:48:23.733Z,87.71
2023-04-09T17:49:58.904Z,88.23
2023-04-09T17:51:31.023Z,88.33
2023-04-09T17:53:03.373Z,88.66
2023-04-09T17:54:36.164Z,88.69
2023-04-09T17:56:09.408Z,88.89
2023-04-09T17:57:42.136Z,88.96
2023-04-09T17:59:14.232Z,88.89
2023-04-09T18:00:46.808Z,88.96
2023-04-09T18:02:19.107Z,88.70
2023-04-09T18:03:51.500Z,88.52
2023-04-09T18:05:24.222Z,88.81
2023-04-09T18:06:57.030Z,88.32
2023-04-09T18:08:29.146Z,88.32
2023-04-09T18:10:02.568Z,88.64
2023-04-09T18:11:34.465Z,88.59
2023-04-09T18:13:06.821Z,88.85
2023-04-09T18:14:38.975Z,89.03
2023-04-09T18:16:12.710Z,89.08
2023-04-09T18:17:45.479Z,89.22
2023-04-09T18:19:17.598Z,89.09
2023-04-09T18:20:52.576Z,88.30
2023-04-09T18:22:25.716Z,87.89
2023-04-09T18:23:58.504Z,87.25
2023-04-09T18:25:30.702Z,86.93
2023-04-09T18:27:03.244Z,86.86
2023-04-09T18:28:36.021Z,86.73
2023-04-09T18:30:08.523Z,86.28
2023-04-09T18:31:40.716Z,86.43
2023-04-09T18:33:12.945Z,86.90
2023-04-09T18:34:46.115Z,87.22
2023-04-09T18:36:19.676Z,87.31
2023-04-09T18:37:51.755Z,87.39
2023-04-09T18:39:23.861Z,87.35
2023-04-09T18:40:57.173Z,87.21
2023-04-09T18:42:29.331Z,86.95
2023-04-09T18:44:01.467Z,86.75
2023-04-09T18:45:33.492Z,86.87
2023-04-09T18:47:06.807Z,87.25
2023-04-09T18:48:39.044Z,87.08
2023-04-09T18:50:12.693Z,87.31
2023-04-09T18:51:44.820Z,87.45
2023-04-09T18:53:16.944Z,87.59
2023-04-09T18:54:49.651Z,87.41
2023-04-09T18:56:21.820Z,87.60
2023-04-09T18:57:54.624Z,87.76
2023-04-09T18:59:26.802Z,87.81
2023-04-09T19:00:59.011Z,87.88
2023-04-09T19:02:31.398Z,88.10
2023-04-09T19:04:03.709Z,88.03
2023-04-09T19:05:36.653Z,87.96
2023-04-09T19:07:08.858Z,87.95
2023-04-09T19:08:41.516Z,87.49
2023-04-09T19:10:13.837Z,87.50
2023-04-09T19:11:46.329Z,87.36
2023-04-09T19:13:18.690Z,87.15
2023-04-09T19:14:50.759Z,87.36
2023-04-09T19:16:23.192Z,87.40
2023-04-09T19:17:56.974Z,87.50
2023-04-09T19:19:29.550Z,87.85
2023-04-09T19:21:01.928Z,88.05
2023-04-09T19:22:34.035Z,87.66
2023-04-09T19:24:06.364Z,87.33
2023-04-09T19:25:38.509Z,87.18
2023-04-09T19:27:12.096Z,86.70
2023-04-09T19:28:44.207Z,86.83
2023-04-09T19:30:16.568Z,87.07
2023-04-09T19:31:48.695Z,87.02
2023-04-09T19:33:22.554Z,86.87
2023-04-09T19:34:54.675Z,86.63
2023-04-09T19:36:27.262Z,86.55
2023-04-09T19:37:59.531Z,86.56
2023-04-09T19:39:31.952Z,86.63
2023-04-09T19:41:04.231Z,86.52
2023-04-09T19:42:36.614Z,86.59
2023-04-09T19:44:09.526Z,86.56
2023-04-09T19:45:43.045Z,86.79
2023-04-09T19:47:15.061Z,86.15
2023-04-09T19:48:47.889Z,86.09
2023-04-09T19:50:20.029Z,86.13
2023-04-09T19:51:52.593Z,86.23
2023-04-09T19:53:25.975Z,86.21
2023-04-09T19:54:58.566Z,86.23
2023-04-09T19:56:30.786Z,86.35
2023-04-09T19:58:03.578Z,86.39
2023-04-09T19:59:37.885Z,86.50
2023-04-09T20:01:13.010Z,86.54
2023-04-09T20:02:45.409Z,86.83
2023-04-09T20:04:17.996Z,86.84
2023-04-09T20:05:50.169Z,86.57
2023-04-09T20:07:22.633Z,87.02
2023-04-09T20:08:55.206Z,87.33
2023-04-09T20:10:27.539Z,87.77
2023-04-09T20:12:04.675Z,88.05
2023-04-09T20:13:36.819Z,88.35
2023-04-09T20:15:09.899Z,88.38
2023-04-09T20:16:42.253Z,88.49
2023-04-09T20:18:14.427Z,88.53
2023-04-09T20:19:46.978Z,88.95
2023-04-09T20:21:19.423Z,88.90
2023-04-09T20:22:56.303Z,89.26
2023-04-09T20:24:28.887Z,89.41
2023-04-09T20:26:01.317Z,89.83
2023-04-09T20:27:35.851Z,89.71
2023-04-09T20:29:08.068Z,89.91
2023-04-09T20:30:40.292Z,89.98
2023-04-09T20:32:13.506Z,90.16
2023-04-09T20:33:45.648Z,90.05
2023-04-09T20:35:17.884Z,89.96
2023-04-09T20:36:50.043Z,90.21
2023-04-09T20:38:22.837Z,90.10
2023-04-09T20:39:55.000Z,90.20
2023-04-09T20:41:27.149Z,90.53
2023-04-09T20:42:59.874Z,90.46
2023-04-09T20:44:32.202Z,90.53
2023-04-09T20:46:05.594Z,90.55
2023-04-09T20:49:19.905Z,90.62
2023-04-09T20:50:52.790Z,90.90
2023-04-09T20:52:25.468Z,90.87
2023-04-09T20:54:00.278Z,90.65
2023-04-09T20:55:32.389Z,90.61
2023-04-09T20:57:06.214Z,90.51
2023-04-09T20:58:39.230Z,90.49
2023-04-09T21:00:12.217Z,90.59
2023-04-09T21:01:44.620Z,90.64
2023-04-09T21:03:17.384Z,90.90
2023-04-09T21:04:49.632Z,90.79
2023-04-09T21:06:21.813Z,91.01
2023-04-09T21:07:53.963Z,90.98
2023-04-09T21:09:26.527Z,90.95
2023-04-09T21:10:58.904Z,91.20
2023-04-09T21:12:32.996Z,91.02
2023-04-09T21:14:07.411Z,91.33
2023-04-09T21:15:39.524Z,91.31
2023-04-09T21:17:11.819Z,91.42
2023-04-09T21:18:44.540Z,91.36
2023-04-09T21:20:17.082Z,91.41
2023-04-09T21:21:49.304Z,91.69
2023-04-09T21:23:21.563Z,91.72
2023-04-09T21:24:54.490Z,91.56
2023-04-09T21:26:26.609Z,91.47
2023-04-09T21:27:58.707Z,91.83
2023-04-09T21:29:30.884Z,91.64
2023-04-09T21:31:03.460Z,91.78
2023-04-09T21:32:35.651Z,91.78
2023-04-09T21:34:07.878Z,91.90
2023-04-09T21:35:40.259Z,91.88
2023-04-09T21:37:12.384Z,91.80
2023-04-09T21:38:44.611Z,91.90
2023-04-09T21:40:17.847Z,92.02
2023-04-09T21:41:50.104Z,91.77
2023-04-09T21:43:22.168Z,91.82
2023-04-09T21:44:56.850Z,92.07
2023-04-09T21:46:28.942Z,91.85
2023-04-09T21:48:02.344Z,91.96
2023-04-09T21:49:39.486Z,91.97
2023-04-09T21:51:12.325Z,91.76
2023-04-09T21:52:46.308Z,91.72
2023-04-09T21:54:18.397Z,91.69
2023-04-09T21:55:50.482Z,91.43
2023-04-09T21:57:23.169Z,91.22
2023-04-09T21:58:55.454Z,91.19
2023-04-09T22:00:29.458Z,90.57
2023-04-09T22:02:01.747Z,90.61
2023-04-09T22:03:35.360Z,90.63
2023-04-09T22:05:07.901Z,90.67
2023-04-09T22:06:40.624Z,90.95
2023-04-09T22:17:53.630Z,90.21
2023-04-09T22:19:26.583Z,90.11
2023-04-09T22:20:58.732Z,90.08
2023-04-09T22:22:31.026Z,90.15
2023-04-09T22:24:03.177Z,90.26
2023-04-09T22:25:35.669Z,90.78
2023-04-09T22:27:07.957Z,90.77
2023-04-09T22:28:40.083Z,90.68
2023-04-09T22:30:12.366Z,90.64
2023-04-09T22:31:44.710Z,90.68
2023-04-09T22:33:16.859Z,90.64
2023-04-09T22:34:49.067Z,90.85
2023-04-09T22:36:21.873Z,90.93
2023-04-09T22:37:53.983Z,90.95
2023-04-09T22:39:26.361Z,90.95
2023-04-09T22:40:58.477Z,90.90
2023-04-09T22:42:30.574Z,90.87
2023-04-09T22:44:03.024Z,90.87
2023-04-09T22:45:35.214Z,90.89
2023-04-09T22:47:07.604Z,90.88